New Athens, Ohio
Current Conditions -  °F | °C
As of 2:53 AM on Thursday 18 Dec 2014 (Local Time) from KHLG Reporting Station
Overcast Overcast  
Wind Chill: 19°   Ceiling: 2100
Heat Index: 27°   Visibility: 10mi
Dew Point: 19°   Wind: 8mph
Humidity: 72%   Direction: 270°W
Pressure: 30.19"   Gusts: NA
Location:  40.18°N, 81°W
Report Text: KHLG 180753Z AUTO 27007KT 10SM OVC021 M03/M07 A3019 RMK AO2 SLP238 T10281072
Loading
Personal Weather Stations






























Interactive Weather Map New forecast layout! Learn more

10-Day Weather Forecast

Advertisements
Track Severe Weather on mobile